Time;durP1;ratioP1;P1;durP2;ratioP2;P2;SDS_P1;SDS_P2;PMS_P1;PMS_P2;Temp;Humidity;BMP_temperature;BMP_pressure;BME280_temperature;BME280_humidity;BME280_pressure;Samples;Min_cycle;Max_cycle;Signal;HPM_P1;HPM_P2
2022/12/10 00:01:27;;;;;;;;;;;0.30;99.90;;;;;;5116668;28;20038;-71
2022/12/10 00:03:52;;;;;;;;;;;0.30;99.90;;;;;;5116527;28;20283;-71
2022/12/10 00:06:20;;;;;;;;;;;0.40;99.90;;;;;;5116535;28;19908;-71
2022/12/10 00:08:45;;;;;;;;;;;0.40;99.90;;;;;;5116473;28;19915;-71
2022/12/10 00:11:12;;;;;;;;;;;0.30;99.90;;;;;;5098478;28;20364;-71
2022/12/10 00:13:38;;;;;;;;;;;0.30;99.90;;;;;;5116228;28;19970;-71
2022/12/10 00:16:05;;;;;;;;;;;0.30;99.90;;;;;;5116167;28;20387;-71
2022/12/10 00:18:31;;;;;;;;;;;0.30;99.90;;;;;;5116158;28;19909;-71
2022/12/10 00:20:57;;;;;;;;;;;0.30;99.90;;;;;;5116532;28;19912;-71
2022/12/10 00:23:23;;;;;;;;;;;0.30;99.90;;;;;;5116131;28;19918;-71
2022/12/10 00:25:48;;;;;;;;;;;0.40;99.90;;;;;;5116182;28;19908;-71
2022/12/10 00:28:14;;;;;;;;;;;0.40;99.90;;;;;;5116123;28;19912;-71
2022/12/10 00:30:39;;;;;;;;;;;0.40;99.90;;;;;;5116071;28;20001;-71
2022/12/10 00:33:05;;;;;;;;;;;0.40;99.90;;;;;;5116211;28;19961;-71
2022/12/10 00:35:30;;;;;;;;;;;0.40;99.90;;;;;;5115851;28;19912;-71
2022/12/10 00:37:56;;;;;;;;;;;0.50;99.90;;;;;;5116182;28;19950;-70
2022/12/10 00:40:22;;;;;;;;;;;0.40;99.90;;;;;;5115855;28;19908;-71
2022/12/10 00:42:48;;;;;;;;;;;0.50;99.90;;;;;;5116166;28;19908;-71
2022/12/10 00:45:13;;;;;;;;;;;0.50;99.90;;;;;;5115765;28;20001;-70
2022/12/10 00:47:39;;;;;;;;;;;0.50;99.90;;;;;;5116033;28;19912;-71
2022/12/10 00:50:04;;;;;;;;;;;0.50;99.90;;;;;;5115669;28;19912;-71
2022/12/10 00:52:31;;;;;;;;;;;0.50;99.90;;;;;;5115708;28;19912;-71
2022/12/10 00:54:56;;;;;;;;;;;0.40;99.90;;;;;;5115789;28;19911;-71
2022/12/10 00:57:22;;;;;;;;;;;0.50;99.90;;;;;;5115519;28;19912;-71
2022/12/10 00:59:47;;;;;;;;;;;0.40;99.90;;;;;;5114642;28;19912;-71
2022/12/10 01:02:13;;;;;;;;;;;0.40;99.90;;;;;;5115924;28;19915;-71
2022/12/10 01:04:38;;;;;;;;;;;0.40;99.90;;;;;;5115400;28;20290;-70
2022/12/10 01:07:04;;;;;;;;;;;0.50;99.90;;;;;;5097350;28;19980;-71
2022/12/10 01:09:30;;;;;;;;;;;0.50;99.90;;;;;;5115330;28;19977;-71
2022/12/10 01:11:57;;;;;;;;;;;0.50;99.90;;;;;;5115198;28;19908;-71
2022/12/10 01:14:24;;;;;;;;;;;0.50;99.90;;;;;;5115223;28;19933;-71
2022/12/10 01:16:53;;;;;;;;;;;0.50;99.90;;;;;;5114972;28;19985;-70
2022/12/10 01:19:18;;;;;;;;;;;0.50;99.90;;;;;;5115372;28;19908;-71
2022/12/10 01:21:44;;;;;;;;;;;0.50;99.90;;;;;;5115059;28;19908;-71
2022/12/10 01:24:10;;;;;;;;;;;0.40;99.90;;;;;;5114882;28;19942;-70
2022/12/10 01:26:35;;;;;;;;;;;0.40;99.90;;;;;;5115007;28;20264;-70
2022/12/10 01:29:01;;;;;;;;;;;0.50;99.90;;;;;;5114934;28;19912;-70
2022/12/10 01:31:31;;;;;;;;;;;0.50;99.90;;;;;;5115183;28;19922;-70
2022/12/10 01:33:58;;;;;;;;;;;0.50;99.90;;;;;;5114758;28;19918;-70
2022/12/10 01:36:26;;;;;;;;;;;0.50;99.90;;;;;;5096658;28;19912;-71
2022/12/10 01:38:52;;;;;;;;;;;0.50;99.90;;;;;;5114810;28;19915;-70
2022/12/10 01:41:22;;;;;;;;;;;0.50;99.90;;;;;;5115101;28;19912;-70
2022/12/10 01:43:53;;;;;;;;;;;0.50;99.90;;;;;;5114654;28;19908;-71
2022/12/10 01:46:19;;;;;;;;;;;0.50;99.90;;;;;;5114682;28;19908;-71
2022/12/10 01:48:45;;;;;;;;;;;0.50;99.90;;;;;;5114626;28;19972;-71
2022/12/10 01:51:11;;;;;;;;;;;0.50;99.90;;;;;;5114865;28;19920;-70
2022/12/10 01:53:36;;;;;;;;;;;0.50;99.90;;;;;;5114310;28;19911;-70
2022/12/10 01:56:02;;;;;;;;;;;0.50;99.90;;;;;;5114418;28;19969;-71
2022/12/10 01:58:28;;;;;;;;;;;0.50;99.90;;;;;;5114706;28;19914;-70
2022/12/10 02:01:14;;;;;;;;;;;0.50;99.90;;;;;;5114996;28;19912;-71
2022/12/10 02:04:00;;;;;;;;;;;0.50;99.90;;;;;;5113438;28;20271;-71
2022/12/10 02:06:31;;;;;;;;;;;0.50;99.90;;;;;;5108959;28;19908;-71
2022/12/10 02:08:56;;;;;;;;;;;0.50;99.90;;;;;;5113800;28;20359;-71
2022/12/10 02:11:40;;;;;;;;;;;0.50;99.90;;;;;;5113465;28;19908;-71
2022/12/10 02:14:22;;;;;;;;;;;0.40;99.90;;;;;;5113582;28;19912;-71
2022/12/10 02:17:11;;;;;;;;;;;0.40;99.90;;;;;;5113341;28;19919;-70
2022/12/10 02:19:55;;;;;;;;;;;0.40;99.90;;;;;;5104813;28;20333;-71
2022/12/10 02:22:22;;;;;;;;;;;0.40;99.90;;;;;;5113303;28;19995;-71
2022/12/10 02:24:50;;;;;;;;;;;0.40;99.90;;;;;;5112614;28;19908;-71
2022/12/10 02:27:19;;;;;;;;;;;0.40;99.90;;;;;;5113691;28;19934;-71
2022/12/10 02:29:47;;;;;;;;;;;0.50;99.90;;;;;;5113566;28;19957;-71
2022/12/10 02:32:18;;;;;;;;;;;0.40;99.90;;;;;;5113505;28;19950;-70
2022/12/10 02:37:15;;;;;;;;;;;0.40;99.90;;;;;;5090279;28;19924;-66
2022/12/10 02:39:44;;;;;;;;;;;0.40;99.90;;;;;;5091701;28;19915;-66
2022/12/10 02:42:10;;;;;;;;;;;0.50;99.90;;;;;;5091654;28;19999;-66
2022/12/10 02:44:37;;;;;;;;;;;0.40;99.90;;;;;;5091525;28;20022;-66
2022/12/10 02:47:03;;;;;;;;;;;0.50;99.90;;;;;;5092904;28;19994;-66
2022/12/10 02:49:29;;;;;;;;;;;0.50;99.90;;;;;;5109342;28;19911;-66
2022/12/10 02:51:55;;;;;;;;;;;0.50;99.90;;;;;;5093371;28;20006;-66
2022/12/10 02:54:33;;;;;;;;;;;0.50;99.90;;;;;;5093902;28;19955;-66
2022/12/10 02:56:59;;;;;;;;;;;0.50;99.90;;;;;;5093442;28;19916;-66
2022/12/10 02:59:38;;;;;;;;;;;0.50;99.90;;;;;;5093531;28;19908;-66
2022/12/10 03:02:10;;;;;;;;;;;0.50;99.90;;;;;;5092286;28;19958;-66
2022/12/10 03:04:44;;;;;;;;;;;0.50;99.90;;;;;;5093484;28;19908;-66
2022/12/10 03:07:15;;;;;;;;;;;0.50;99.90;;;;;;5071780;28;20352;-66
2022/12/10 03:09:47;;;;;;;;;;;0.40;99.90;;;;;;5072002;28;20291;-66
2022/12/10 03:12:22;;;;;;;;;;;0.40;99.90;;;;;;5073807;28;20299;-66
2022/12/10 03:14:48;;;;;;;;;;;0.40;99.90;;;;;;5073128;28;19908;-66
2022/12/10 03:17:14;;;;;;;;;;;0.40;99.90;;;;;;5073307;28;20027;-66
2022/12/10 03:19:42;;;;;;;;;;;0.40;99.90;;;;;;5072512;28;19920;-66
2022/12/10 03:22:09;;;;;;;;;;;0.40;99.90;;;;;;5072872;28;20018;-66
2022/12/10 03:24:35;;;;;;;;;;;0.40;99.90;;;;;;5076638;28;20323;-66
2022/12/10 03:27:01;;;;;;;;;;;0.50;99.90;;;;;;5078627;28;19912;-66
2022/12/10 03:29:28;;;;;;;;;;;0.40;99.90;;;;;;5097231;28;19923;-66
2022/12/10 03:31:54;;;;;;;;;;;0.40;99.90;;;;;;5097128;28;19998;-66
2022/12/10 03:34:20;;;;;;;;;;;0.30;99.90;;;;;;5097156;28;20374;-66
2022/12/10 03:36:46;;;;;;;;;;;0.30;99.90;;;;;;5096287;28;19916;-66
2022/12/10 03:39:12;;;;;;;;;;;0.30;99.90;;;;;;5096760;28;19999;-66
2022/12/10 03:41:38;;;;;;;;;;;0.30;99.90;;;;;;5096989;28;19951;-66
2022/12/10 03:44:03;;;;;;;;;;;0.20;99.90;;;;;;5096687;28;20253;-66
2022/12/10 03:46:30;;;;;;;;;;;0.20;99.90;;;;;;5097463;28;19962;-66
2022/12/10 03:48:56;;;;;;;;;;;0.30;99.90;;;;;;5096849;28;19912;-66
2022/12/10 03:51:22;;;;;;;;;;;0.30;99.90;;;;;;5096385;28;19951;-66
2022/12/10 03:53:50;;;;;;;;;;;0.30;99.90;;;;;;5096748;28;19912;-66
2022/12/10 03:56:19;;;;;;;;;;;0.40;99.90;;;;;;5096371;28;19916;-66
2022/12/10 03:58:45;;;;;;;;;;;0.40;99.90;;;;;;5096353;28;19912;-66
2022/12/10 04:01:11;;;;;;;;;;;0.30;99.90;;;;;;5096951;28;20420;-66
2022/12/10 04:03:37;;;;;;;;;;;0.30;99.90;;;;;;5096249;28;20330;-65
2022/12/10 04:06:04;;;;;;;;;;;0.30;99.90;;;;;;5095854;28;19913;-66
2022/12/10 04:08:29;;;;;;;;;;;0.30;99.90;;;;;;5096198;28;20327;-66
2022/12/10 04:10:55;;;;;;;;;;;0.30;99.90;;;;;;5096705;28;19969;-66
2022/12/10 04:18:48;;;;;;;;;;;0.30;99.90;;;;;;5096627;28;19919;-66
2022/12/10 04:26:51;;;;;;;;;;;0.30;99.90;;;;;;5096151;28;19919;-66
2022/12/10 04:29:18;;;;;;;;;;;0.40;99.90;;;;;;5094587;28;19920;-66
2022/12/10 04:31:43;;;;;;;;;;;0.40;99.90;;;;;;5096042;28;19951;-66
2022/12/10 04:34:09;;;;;;;;;;;0.40;99.90;;;;;;5095712;28;19908;-66
2022/12/10 04:36:35;;;;;;;;;;;0.40;99.90;;;;;;5095328;28;19920;-66
2022/12/10 04:39:00;;;;;;;;;;;0.40;99.90;;;;;;5095831;28;19908;-66
2022/12/10 04:41:26;;;;;;;;;;;0.40;99.90;;;;;;5095477;28;19955;-66
2022/12/10 04:43:52;;;;;;;;;;;0.50;99.90;;;;;;5094239;28;19979;-66
2022/12/10 04:46:17;;;;;;;;;;;0.40;99.90;;;;;;5095422;28;19908;-66
2022/12/10 04:48:43;;;;;;;;;;;0.40;99.90;;;;;;5095372;28;19916;-66
2022/12/10 04:51:08;;;;;;;;;;;0.40;99.90;;;;;;5095693;28;19919;-66
2022/12/10 04:53:36;;;;;;;;;;;0.40;99.90;;;;;;5077163;28;20006;-66
2022/12/10 04:56:04;;;;;;;;;;;0.30;99.90;;;;;;5095287;28;20042;-66
2022/12/10 04:58:30;;;;;;;;;;;0.30;99.90;;;;;;5095207;28;19998;-66
2022/12/10 05:01:03;;;;;;;;;;;0.30;99.90;;;;;;5095472;28;19952;-66
2022/12/10 05:03:28;;;;;;;;;;;0.30;99.90;;;;;;5095432;28;19912;-66
2022/12/10 05:05:54;;;;;;;;;;;0.30;99.90;;;;;;5094647;28;19930;-66
2022/12/10 05:08:19;;;;;;;;;;;0.30;99.90;;;;;;5095035;28;20315;-66
2022/12/10 05:10:45;;;;;;;;;;;0.20;99.90;;;;;;5095254;28;20328;-65
2022/12/10 05:13:10;;;;;;;;;;;0.20;99.90;;;;;;5095256;28;19943;-66
2022/12/10 05:15:39;;;;;;;;;;;0.20;99.90;;;;;;5095014;28;19920;-66
2022/12/10 05:18:04;;;;;;;;;;;0.20;99.90;;;;;;5095415;28;19958;-66
2022/12/10 05:20:30;;;;;;;;;;;0.20;99.90;;;;;;5094781;28;19916;-66
2022/12/10 05:25:55;;;;;;;;;;;0.20;99.90;;;;;;5094984;28;19920;-66
2022/12/10 05:28:21;;;;;;;;;;;0.20;99.90;;;;;;5094979;28;19913;-66
2022/12/10 05:30:46;;;;;;;;;;;0.20;99.90;;;;;;5095200;28;19912;-66
2022/12/10 05:33:12;;;;;;;;;;;0.20;99.90;;;;;;5094572;28;19909;-66
2022/12/10 05:35:38;;;;;;;;;;;0.30;99.90;;;;;;5094297;28;20007;-66
2022/12/10 05:38:03;;;;;;;;;;;0.30;99.90;;;;;;5094518;28;19947;-66
2022/12/10 05:40:29;;;;;;;;;;;0.30;99.90;;;;;;5093305;28;19919;-66
2022/12/10 05:42:54;;;;;;;;;;;0.40;99.90;;;;;;5094403;28;20368;-66
2022/12/10 05:45:20;;;;;;;;;;;0.40;99.90;;;;;;5094171;28;20350;-66
2022/12/10 05:47:45;;;;;;;;;;;0.40;99.90;;;;;;5094861;28;20413;-66
2022/12/10 05:50:11;;;;;;;;;;;0.40;99.90;;;;;;5094317;28;19912;-66
2022/12/10 05:52:36;;;;;;;;;;;0.40;99.90;;;;;;5092727;28;20299;-66
2022/12/10 05:55:02;;;;;;;;;;;0.40;99.90;;;;;;5094099;28;20290;-66
2022/12/10 05:57:28;;;;;;;;;;;0.40;99.90;;;;;;5094391;28;19912;-66
2022/12/10 05:59:53;;;;;;;;;;;0.40;99.90;;;;;;5094459;28;19942;-66
2022/12/10 06:02:19;;;;;;;;;;;0.40;99.90;;;;;;5094116;28;19954;-66
2022/12/10 06:04:44;;;;;;;;;;;0.40;99.90;;;;;;5093922;28;20453;-66
2022/12/10 06:07:10;;;;;;;;;;;0.40;99.90;;;;;;5093924;28;20386;-66
2022/12/10 06:09:35;;;;;;;;;;;0.40;99.90;;;;;;5094331;28;20405;-66
2022/12/10 06:12:01;;;;;;;;;;;0.40;99.90;;;;;;5094264;28;19995;-66
2022/12/10 06:14:26;;;;;;;;;;;0.50;99.90;;;;;;5093376;28;19916;-66
2022/12/10 06:16:52;;;;;;;;;;;0.50;99.90;;;;;;5093794;28;20019;-66
2022/12/10 06:19:17;;;;;;;;;;;0.50;99.90;;;;;;5094143;28;19912;-66
2022/12/10 06:21:43;;;;;;;;;;;0.50;99.90;;;;;;5093858;28;19917;-66
2022/12/10 06:24:08;;;;;;;;;;;0.50;99.90;;;;;;5093321;28;19918;-66
2022/12/10 06:26:34;;;;;;;;;;;0.40;99.90;;;;;;5093796;28;20279;-66
2022/12/10 06:29:00;;;;;;;;;;;0.40;99.90;;;;;;5094100;28;20003;-66
2022/12/10 06:31:25;;;;;;;;;;;0.40;99.90;;;;;;5094098;28;19912;-66
2022/12/10 06:33:52;;;;;;;;;;;0.40;99.90;;;;;;5094101;28;20257;-66
2022/12/10 06:36:18;;;;;;;;;;;0.40;99.90;;;;;;5093250;28;19999;-66
2022/12/10 06:38:44;;;;;;;;;;;0.40;99.90;;;;;;5093997;28;19955;-66
2022/12/10 06:41:11;;;;;;;;;;;0.40;99.90;;;;;;5093576;28;20260;-66
2022/12/10 06:43:37;;;;;;;;;;;0.40;99.90;;;;;;5090662;28;19946;-66
2022/12/10 06:46:09;;;;;;;;;;;0.40;99.90;;;;;;5092279;28;19975;-66
2022/12/10 06:48:35;;;;;;;;;;;0.50;99.90;;;;;;5093021;28;19916;-66
2022/12/10 06:51:01;;;;;;;;;;;0.50;99.90;;;;;;5084210;28;19913;-66
2022/12/10 06:53:26;;;;;;;;;;;0.50;99.90;;;;;;5077498;28;19920;-66
2022/12/10 06:55:52;;;;;;;;;;;0.50;99.90;;;;;;5082840;28;20276;-66
2022/12/10 06:58:17;;;;;;;;;;;0.50;99.90;;;;;;5074843;28;19912;-66
2022/12/10 07:00:43;;;;;;;;;;;0.50;99.90;;;;;;5094595;28;20265;-66
2022/12/10 07:03:08;;;;;;;;;;;0.50;99.90;;;;;;5097470;28;20294;-66
2022/12/10 07:05:34;;;;;;;;;;;0.50;99.90;;;;;;5090587;28;20002;-66
2022/12/10 07:07:59;;;;;;;;;;;0.40;99.90;;;;;;5097351;28;19961;-66
2022/12/10 07:10:25;;;;;;;;;;;0.40;99.90;;;;;;5090250;28;19919;-66
2022/12/10 07:12:51;;;;;;;;;;;0.40;99.90;;;;;;5080514;28;20011;-66
2022/12/10 07:15:16;;;;;;;;;;;0.40;99.90;;;;;;5097414;28;19967;-66
2022/12/10 07:17:42;;;;;;;;;;;0.30;99.90;;;;;;5097728;28;19961;-66
2022/12/10 07:20:07;;;;;;;;;;;0.40;99.90;;;;;;5095911;28;20282;-66
2022/12/10 07:22:33;;;;;;;;;;;0.40;99.90;;;;;;5096871;28;19912;-66
2022/12/10 07:24:58;;;;;;;;;;;0.40;99.90;;;;;;5097524;28;19912;-66
2022/12/10 07:27:24;;;;;;;;;;;0.40;99.90;;;;;;5097055;28;19912;-66
2022/12/10 07:29:50;;;;;;;;;;;0.40;99.90;;;;;;5097251;28;19912;-66
2022/12/10 07:32:15;;;;;;;;;;;0.50;99.90;;;;;;5096951;28;19912;-66
2022/12/10 07:34:41;;;;;;;;;;;0.50;99.90;;;;;;5096786;28;19915;-66
2022/12/10 07:37:06;;;;;;;;;;;0.60;99.90;;;;;;5088808;28;20020;-66
2022/12/10 07:39:32;;;;;;;;;;;0.60;99.90;;;;;;5075009;28;19918;-66
2022/12/10 07:41:58;;;;;;;;;;;0.60;99.90;;;;;;5076712;28;20011;-66
2022/12/10 07:44:24;;;;;;;;;;;0.70;99.90;;;;;;5075160;28;19912;-66
2022/12/10 07:46:50;;;;;;;;;;;0.70;99.90;;;;;;5076354;28;20330;-66
2022/12/10 07:49:16;;;;;;;;;;;0.80;99.90;;;;;;5076874;28;19909;-66
2022/12/10 07:51:45;;;;;;;;;;;0.80;99.90;;;;;;5076001;28;19913;-66
2022/12/10 07:54:11;;;;;;;;;;;0.80;99.90;;;;;;5076180;28;19909;-66
2022/12/10 07:56:36;;;;;;;;;;;0.80;99.90;;;;;;5075976;28;19942;-66
2022/12/10 07:59:02;;;;;;;;;;;0.80;99.90;;;;;;5076386;28;19908;-66
2022/12/10 08:01:28;;;;;;;;;;;0.80;99.90;;;;;;5076018;28;19947;-66
2022/12/10 08:03:56;;;;;;;;;;;0.80;99.90;;;;;;5075986;28;19913;-66
2022/12/10 08:06:22;;;;;;;;;;;0.80;99.90;;;;;;5089386;28;20284;-66
2022/12/10 08:08:47;;;;;;;;;;;0.80;99.90;;;;;;5095360;28;19931;-66
2022/12/10 08:11:14;;;;;;;;;;;0.80;99.90;;;;;;5094849;28;20366;-66
2022/12/10 08:13:40;;;;;;;;;;;0.80;99.90;;;;;;5096057;28;19908;-66
2022/12/10 08:16:07;;;;;;;;;;;0.80;99.90;;;;;;5095591;28;20386;-66
2022/12/10 08:18:33;;;;;;;;;;;0.80;99.90;;;;;;5095562;28;19908;-66
2022/12/10 08:21:02;;;;;;;;;;;0.90;99.90;;;;;;5095751;28;19912;-66
2022/12/10 08:23:28;;;;;;;;;;;0.90;99.90;;;;;;5095836;28;19908;-66
2022/12/10 08:25:53;;;;;;;;;;;0.80;99.90;;;;;;5095819;28;20287;-66
2022/12/10 08:28:19;;;;;;;;;;;0.90;99.90;;;;;;5095774;28;19970;-66
2022/12/10 08:30:48;;;;;;;;;;;0.80;99.90;;;;;;5095839;28;20298;-66
2022/12/10 08:33:14;;;;;;;;;;;0.90;99.90;;;;;;5095747;28;19916;-66
2022/12/10 08:35:44;;;;;;;;;;;0.90;99.90;;;;;;5108216;22;19923;-87
2022/12/10 08:38:11;;;;;;;;;;;1.00;99.90;;;;;;5115065;28;19908;-87
2022/12/10 08:40:40;;;;;;;;;;;1.00;99.90;;;;;;5115145;28;20252;-88
2022/12/10 08:43:06;;;;;;;;;;;1.00;99.90;;;;;;5107788;28;20376;-87
2022/12/10 08:45:31;;;;;;;;;;;1.00;99.90;;;;;;5094937;28;19912;-88
2022/12/10 08:47:57;;;;;;;;;;;1.10;99.90;;;;;;5097158;28;19908;-87
2022/12/10 08:50:22;;;;;;;;;;;1.00;99.90;;;;;;5115195;28;20438;-87
2022/12/10 08:52:48;;;;;;;;;;;1.00;99.90;;;;;;5116299;28;19908;-88
2022/12/10 08:55:13;;;;;;;;;;;1.00;99.90;;;;;;5099697;28;19935;-87
2022/12/10 08:57:39;;;;;;;;;;;1.00;99.90;;;;;;5115515;28;20007;-87
2022/12/10 09:00:08;;;;;;;;;;;1.00;99.90;;;;;;5098294;28;19915;-87
2022/12/10 09:02:34;;;;;;;;;;;1.00;99.90;;;;;;5109827;28;19908;-87
2022/12/10 09:05:00;;;;;;;;;;;1.10;99.90;;;;;;5107440;28;19953;-87
2022/12/10 09:07:26;;;;;;;;;;;1.10;99.90;;;;;;5098184;28;19915;-87
2022/12/10 09:09:52;;;;;;;;;;;1.10;99.90;;;;;;5114933;28;19919;-87
2022/12/10 09:12:17;;;;;;;;;;;1.10;99.90;;;;;;5080405;28;19912;-88
2022/12/10 09:14:43;;;;;;;;;;;1.10;99.90;;;;;;5098235;28;19963;-87
2022/12/10 09:17:08;;;;;;;;;;;1.10;99.90;;;;;;5109403;28;20295;-87
2022/12/10 09:19:34;;;;;;;;;;;1.10;99.90;;;;;;5104140;28;19912;-87
2022/12/10 09:22:00;;;;;;;;;;;1.10;99.90;;;;;;5115032;28;20320;-87
2022/12/10 09:24:25;;;;;;;;;;;1.20;99.90;;;;;;5116693;28;19914;-87
2022/12/10 09:26:51;;;;;;;;;;;1.20;99.90;;;;;;5099190;28;19939;-88
2022/12/10 09:29:16;;;;;;;;;;;1.20;99.90;;;;;;5094692;28;19994;-87
2022/12/10 09:31:42;;;;;;;;;;;1.20;99.90;;;;;;5078448;28;19942;-86
2022/12/10 09:34:08;;;;;;;;;;;1.20;99.90;;;;;;5097290;28;19919;-87
2022/12/10 09:36:33;;;;;;;;;;;1.20;99.90;;;;;;5097337;28;20378;-88
2022/12/10 09:38:59;;;;;;;;;;;1.30;99.90;;;;;;5114749;28;19911;-87
2022/12/10 09:41:46;;;;;;;;;;;1.30;99.90;;;;;;5113295;28;19914;-86
2022/12/10 09:44:30;;;;;;;;;;;1.30;99.90;;;;;;5114035;28;19912;-87
2022/12/10 09:47:00;;;;;;;;;;;1.40;99.90;;;;;;5103896;28;19908;-87
2022/12/10 09:49:25;;;;;;;;;;;1.40;99.90;;;;;;5115802;28;19911;-87
2022/12/10 09:51:55;;;;;;;;;;;1.40;99.90;;;;;;5115686;28;20271;-87
2022/12/10 09:54:29;;;;;;;;;;;1.40;99.90;;;;;;5095676;28;19984;-87
2022/12/10 09:56:56;;;;;;;;;;;1.40;99.90;;;;;;5100213;28;19912;-87
2022/12/10 09:59:24;;;;;;;;;;;1.50;99.90;;;;;;5113815;28;19959;-88
2022/12/10 10:01:57;;;;;;;;;;;1.50;99.90;;;;;;5113685;28;20006;-87
2022/12/10 10:04:22;;;;;;;;;;;1.60;99.90;;;;;;5114758;28;19914;-87
2022/12/10 10:06:48;;;;;;;;;;;1.60;99.90;;;;;;5115192;28;19999;-86
2022/12/10 10:09:14;;;;;;;;;;;1.70;99.90;;;;;;5099413;28;19996;-87
2022/12/10 10:11:40;;;;;;;;;;;1.70;99.90;;;;;;5114175;28;19912;-86
2022/12/10 10:14:10;;;;;;;;;;;1.80;99.90;;;;;;5114855;28;19908;-87
2022/12/10 10:16:45;;;;;;;;;;;1.90;99.90;;;;;;5115654;28;20279;-87
2022/12/10 10:19:10;;;;;;;;;;;2.00;99.90;;;;;;5115072;28;20409;-87
2022/12/10 10:21:38;;;;;;;;;;;2.00;99.90;;;;;;5113835;28;19908;-86
2022/12/10 10:24:04;;;;;;;;;;;2.00;99.90;;;;;;5113633;28;19908;-86
2022/12/10 10:26:31;;;;;;;;;;;1.90;99.90;;;;;;5097504;28;19959;-87
2022/12/10 10:28:59;;;;;;;;;;;1.90;99.90;;;;;;5113913;28;19954;-87
2022/12/10 10:31:28;;;;;;;;;;;1.80;99.90;;;;;;5115952;28;20394;-87
2022/12/10 10:33:57;;;;;;;;;;;1.80;99.90;;;;;;5118500;28;19908;-86
2022/12/10 10:36:26;;;;;;;;;;;1.90;99.90;;;;;;5118537;28;19923;-87
2022/12/10 10:38:52;;;;;;;;;;;2.00;99.90;;;;;;5118991;28;20287;-87
2022/12/10 10:41:18;;;;;;;;;;;2.10;99.90;;;;;;5120177;28;19912;-87
2022/12/10 10:43:54;;;;;;;;;;;2.10;99.90;;;;;;5122150;28;19912;-87
2022/12/10 10:55:56;;;;;;;;;;;2.30;99.90;;;;;;5097829;28;19919;-88
2022/12/10 10:59:02;;;;;;;;;;;2.40;99.90;;;;;;5137386;27;20007;-88
2022/12/10 11:01:47;;;;;;;;;;;2.40;99.90;;;;;;5120220;28;19961;-87
2022/12/10 11:11:04;;;;;;;;;;;;;;;;;;;;;
2022/12/10 11:13:33;;;;;;;;;;;2.30;99.90;;;;;;5119988;28;19907;-87
2022/12/10 11:16:14;;;;;;;;;;;2.20;99.90;;;;;;5118226;28;19911;-87
2022/12/10 11:19:04;;;;;;;;;;;2.20;99.90;;;;;;5119841;28;19908;-88
2022/12/10 11:21:40;;;;;;;;;;;2.30;99.90;;;;;;5098600;28;20383;-87
2022/12/10 11:24:26;;;;;;;;;;;;;;;;;;;;;
2022/12/10 11:27:21;;;;;;;;;;;2.20;99.90;;;;;;5118010;28;19918;-86
2022/12/10 11:36:02;;;;;;;;;;;2.20;99.90;;;;;;5097606;28;19931;-86
2022/12/10 11:38:35;;;;;;;;;;;2.20;99.90;;;;;;5114330;28;19935;-86
2022/12/10 11:41:20;;;;;;;;;;;2.20;99.90;;;;;;5116992;28;19923;-86
2022/12/10 11:44:29;;;;;;;;;;;2.20;99.90;;;;;;5115329;28;19994;-86
2022/12/10 11:47:12;;;;;;;;;;;2.20;99.90;;;;;;5683452;22;19918;-72
2022/12/10 11:49:56;;;;;;;;;;;2.20;99.90;;;;;;5058329;28;19966;-72
2022/12/10 11:52:40;;;;;;;;;;;2.20;99.90;;;;;;5076372;28;19951;-72
2022/12/10 11:55:14;;;;;;;;;;;2.20;99.90;;;;;;5076226;28;20027;-72
2022/12/10 11:57:46;;;;;;;;;;;2.20;99.90;;;;;;5076525;28;19971;-72
2022/12/10 12:00:20;;;;;;;;;;;2.20;99.90;;;;;;5076222;28;19944;-72
2022/12/10 12:02:49;;;;;;;;;;;2.20;99.90;;;;;;5076929;28;20307;-69
2022/12/10 12:05:33;;;;;;;;;;;2.10;99.90;;;;;;5075980;28;19908;-69
2022/12/10 12:08:23;;;;;;;;;;;2.20;99.90;;;;;;5075880;28;20431;-69
2022/12/10 12:10:49;;;;;;;;;;;2.20;99.90;;;;;;5075967;28;19908;-69
2022/12/10 12:13:24;;;;;;;;;;;2.20;99.90;;;;;;5075067;28;19915;-69
2022/12/10 12:15:56;;;;;;;;;;;2.10;99.90;;;;;;5075718;28;19916;-69
2022/12/10 12:18:39;;;;;;;;;;;2.10;99.90;;;;;;5074864;28;20025;-69
2022/12/10 12:21:09;;;;;;;;;;;2.10;99.90;;;;;;5070599;28;19912;-69
2022/12/10 12:23:34;;;;;;;;;;;2.00;99.90;;;;;;5068457;28;19912;-69
2022/12/10 12:26:03;;;;;;;;;;;2.00;99.90;;;;;;5071610;28;20379;-69
2022/12/10 12:28:41;;;;;;;;;;;1.90;99.90;;;;;;5074028;28;20322;-69
2022/12/10 12:31:10;;;;;;;;;;;1.90;99.90;;;;;;5074226;28;19997;-69
2022/12/10 12:33:41;;;;;;;;;;;1.90;99.90;;;;;;5073817;28;19995;-69
2022/12/10 12:36:12;;;;;;;;;;;1.80;99.90;;;;;;5074991;28;20007;-70
2022/12/10 12:38:41;;;;;;;;;;;1.90;99.90;;;;;;5075180;28;19909;-69
2022/12/10 12:41:14;;;;;;;;;;;1.80;99.90;;;;;;5075357;28;19912;-69
2022/12/10 12:43:44;;;;;;;;;;;1.80;99.90;;;;;;5075340;28;19908;-69
2022/12/10 12:46:23;;;;;;;;;;;1.80;99.90;;;;;;5075482;28;19909;-68
2022/12/10 12:48:49;;;;;;;;;;;1.80;99.90;;;;;;5072594;28;19939;-68
2022/12/10 12:51:21;;;;;;;;;;;1.80;99.90;;;;;;5075499;28;19936;-68
2022/12/10 12:53:47;;;;;;;;;;;1.70;99.90;;;;;;5074885;28;19913;-69
2022/12/10 12:56:21;;;;;;;;;;;1.70;99.90;;;;;;5073946;28;20264;-68
2022/12/10 12:58:48;;;;;;;;;;;1.70;99.90;;;;;;5075092;28;19955;-68
2022/12/10 13:01:17;;;;;;;;;;;1.70;99.90;;;;;;5074979;28;19913;-68
2022/12/10 13:03:43;;;;;;;;;;;1.60;99.90;;;;;;5074953;28;19914;-68
2022/12/10 13:06:17;;;;;;;;;;;1.60;99.90;;;;;;5075339;28;19908;-68
2022/12/10 13:08:51;;;;;;;;;;;1.60;99.90;;;;;;5074555;28;19924;-68
2022/12/10 13:11:19;;;;;;;;;;;1.60;99.90;;;;;;5075050;28;19908;-68
2022/12/10 13:14:10;;;;;;;;;;;1.60;99.90;;;;;;5074791;28;19991;-68
2022/12/10 13:16:36;;;;;;;;;;;1.50;99.90;;;;;;5074552;28;19922;-68
2022/12/10 13:19:20;;;;;;;;;;;1.50;99.90;;;;;;5074631;28;19991;-68
2022/12/10 13:22:01;;;;;;;;;;;1.50;99.90;;;;;;5074276;28;19908;-69
2022/12/10 13:24:35;;;;;;;;;;;1.40;99.90;;;;;;5074548;28;19966;-68
2022/12/10 13:27:03;;;;;;;;;;;1.40;99.90;;;;;;5074395;28;19909;-69
2022/12/10 13:29:29;;;;;;;;;;;1.40;99.90;;;;;;5074738;28;19995;-69
2022/12/10 13:32:01;;;;;;;;;;;1.40;99.90;;;;;;5074407;28;19948;-68
2022/12/10 13:34:32;;;;;;;;;;;1.40;99.90;;;;;;5074667;28;19938;-68
2022/12/10 13:37:00;;;;;;;;;;;1.40;99.90;;;;;;5073862;28;19958;-69
2022/12/10 13:39:25;;;;;;;;;;;1.40;99.90;;;;;;5074228;28;19909;-68
2022/12/10 13:44:54;;;;;;;;;;;1.40;99.90;;;;;;5074425;28;19955;-69
2022/12/10 13:47:31;;;;;;;;;;;1.40;99.90;;;;;;5072711;28;19916;-69
2022/12/10 13:49:58;;;;;;;;;;;1.30;99.90;;;;;;5074233;28;20429;-68
2022/12/10 13:52:30;;;;;;;;;;;1.30;99.90;;;;;;5073193;28;19908;-70
2022/12/10 13:54:57;;;;;;;;;;;1.40;99.90;;;;;;5072951;28;20356;-69
2022/12/10 13:57:30;;;;;;;;;;;1.40;99.90;;;;;;5072810;28;19912;-69
2022/12/10 14:00:07;;;;;;;;;;;1.30;99.90;;;;;;5072940;28;19909;-70
2022/12/10 14:02:52;;;;;;;;;;;1.30;99.90;;;;;;5073345;28;19909;-69
2022/12/10 14:05:23;;;;;;;;;;;1.30;99.90;;;;;;5072796;28;19912;-70
2022/12/10 14:07:49;;;;;;;;;;;1.20;99.90;;;;;;5071836;28;19931;-69
2022/12/10 14:10:17;;;;;;;;;;;1.20;99.90;;;;;;5074134;28;19908;-69
2022/12/10 14:12:43;;;;;;;;;;;1.20;99.90;;;;;;5073888;28;20003;-69
2022/12/10 14:15:22;;;;;;;;;;;1.10;99.90;;;;;;5073751;28;19912;-69
2022/12/10 14:18:03;;;;;;;;;;;1.10;99.90;;;;;;5073380;28;20460;-69
2022/12/10 14:20:30;;;;;;;;;;;1.10;99.90;;;;;;5074064;28;20314;-69
2022/12/10 14:23:32;;;;;;;;;;;1.10;99.90;;;;;;5073498;28;19931;-69
2022/12/10 14:25:45;;;;;;;;;;;1.10;99.90;;;;;;5073485;28;19919;-69
2022/12/10 14:28:12;;;;;;;;;;;1.10;99.90;;;;;;5073711;28;20286;-68
2022/12/10 14:30:42;;;;;;;;;;;1.00;99.90;;;;;;5073677;28;19962;-69
2022/12/10 14:33:08;;;;;;;;;;;1.00;99.90;;;;;;5073638;28;19913;-69
2022/12/10 14:35:34;;;;;;;;;;;1.00;99.90;;;;;;5073426;28;19963;-69
2022/12/10 14:38:01;;;;;;;;;;;0.90;99.90;;;;;;5073352;28;20380;-68
2022/12/10 14:40:30;;;;;;;;;;;0.90;99.90;;;;;;5073567;28;19952;-69
2022/12/10 14:43:02;;;;;;;;;;;0.90;99.90;;;;;;5073820;28;19958;-69
2022/12/10 14:45:31;;;;;;;;;;;0.90;99.90;;;;;;5073650;28;19908;-69
2022/12/10 14:47:59;;;;;;;;;;;0.90;99.90;;;;;;5073411;28;20284;-69
2022/12/10 14:50:27;;;;;;;;;;;0.90;99.90;;;;;;5073418;28;19913;-69
2022/12/10 14:52:53;;;;;;;;;;;0.90;99.90;;;;;;5073156;28;19915;-69
2022/12/10 14:55:20;;;;;;;;;;;0.90;99.90;;;;;;5073330;28;19913;-69
2022/12/10 14:57:50;;;;;;;;;;;0.90;99.90;;;;;;5073332;28;20387;-69
2022/12/10 15:00:17;;;;;;;;;;;0.90;99.90;;;;;;5073389;28;19908;-69
2022/12/10 15:03:06;;;;;;;;;;;0.90;99.90;;;;;;5073422;28;20422;-69
2022/12/10 15:05:32;;;;;;;;;;;0.90;99.90;;;;;;5073257;28;19915;-69
2022/12/10 15:08:06;;;;;;;;;;;0.90;99.90;;;;;;5071852;28;19990;-69
2022/12/10 15:10:36;;;;;;;;;;;0.90;99.90;;;;;;5073267;28;20322;-69
2022/12/10 15:13:02;;;;;;;;;;;0.90;99.90;;;;;;5073602;28;20272;-68
2022/12/10 15:15:30;;;;;;;;;;;0.80;99.90;;;;;;5073099;28;19908;-69
2022/12/10 15:18:01;;;;;;;;;;;0.80;99.90;;;;;;5073203;28;19931;-68
2022/12/10 15:20:30;;;;;;;;;;;0.80;99.90;;;;;;5076347;28;19935;-68
2022/12/10 15:23:07;;;;;;;;;;;0.80;99.90;;;;;;5076572;28;19958;-69